createdAt,value
2022-09-21T00:01:08.015Z,9.04
2022-09-21T00:03:35.558Z,9.08
2022-09-21T00:06:04.693Z,8.84
2022-09-21T00:08:32.334Z,8.51
2022-09-21T00:11:00.128Z,8.48
2022-09-21T00:13:29.155Z,8.38
2022-09-21T00:15:56.771Z,8.43
2022-09-21T00:18:24.753Z,8.47
2022-09-21T00:20:52.873Z,8.33
2022-09-21T00:23:20.639Z,8.28
2022-09-21T00:25:48.293Z,8.42
2022-09-21T00:28:16.001Z,8.38
2022-09-21T00:31:10.990Z,8.16
2022-09-21T00:33:38.738Z,8.10
2022-09-21T00:36:07.415Z,8.26
2022-09-21T00:38:35.746Z,8.28
2022-09-21T00:41:03.663Z,8.29
2022-09-21T00:43:33.070Z,8.08
2022-09-21T00:46:04.737Z,7.95
2022-09-21T00:48:32.594Z,8.00
2022-09-21T00:51:02.936Z,8.04
2022-09-21T00:53:31.973Z,8.13
2022-09-21T00:56:00.834Z,8.12
2022-09-21T00:58:31.020Z,8.02
2022-09-21T01:00:59.817Z,7.95
2022-09-21T01:03:31.324Z,7.88
2022-09-21T01:05:58.828Z,7.92
2022-09-21T01:08:27.179Z,7.79
2022-09-21T01:11:07.611Z,7.46
2022-09-21T01:13:41.210Z,7.33
2022-09-21T01:16:12.915Z,7.38
2022-09-21T01:18:47.743Z,7.64
2022-09-21T01:21:18.680Z,7.65
2022-09-21T01:24:00.795Z,7.68
2022-09-21T01:26:39.768Z,7.69
2022-09-21T01:29:21.537Z,7.56
2022-09-21T01:31:52.341Z,7.46
2022-09-21T01:34:25.475Z,7.43
2022-09-21T01:36:55.037Z,7.28
2022-09-21T01:39:23.490Z,7.23
2022-09-21T01:41:52.364Z,7.24
2022-09-21T01:44:22.965Z,7.31
2022-09-21T01:46:51.163Z,7.42
2022-09-21T01:49:26.907Z,7.45
2022-09-21T01:51:57.288Z,7.42
2022-09-21T01:54:29.697Z,7.42
2022-09-21T01:57:01.755Z,7.24
2022-09-21T01:59:37.133Z,7.03
2022-09-21T02:02:10.963Z,6.92
2022-09-21T02:04:39.020Z,6.82
2022-09-21T02:07:07.494Z,6.68
2022-09-21T02:09:36.014Z,6.62
2022-09-21T02:12:03.591Z,6.55
2022-09-21T02:14:33.418Z,6.63
2022-09-21T02:17:07.603Z,6.85
2022-09-21T02:19:41.631Z,6.95
2022-09-21T02:22:13.483Z,7.18
2022-09-21T02:24:43.247Z,7.20
2022-09-21T02:27:19.241Z,7.22
2022-09-21T02:29:51.757Z,7.10
2022-09-21T02:32:26.370Z,7.37
2022-09-21T02:34:55.217Z,7.97
2022-09-21T02:37:25.276Z,8.13
2022-09-21T02:39:59.859Z,8.28
2022-09-21T02:42:29.354Z,8.42
2022-09-21T02:45:02.327Z,8.48
2022-09-21T02:47:33.507Z,8.51
2022-09-21T02:50:05.536Z,8.52
2022-09-21T02:52:33.733Z,8.39
2022-09-21T02:55:02.335Z,8.30
2022-09-21T02:57:30.170Z,7.84
2022-09-21T02:59:58.982Z,7.39
2022-09-21T03:02:37.116Z,7.25
2022-09-21T03:05:05.278Z,7.18
2022-09-21T03:07:32.809Z,7.28
2022-09-21T03:10:00.309Z,7.33
2022-09-21T03:12:27.797Z,7.22
2022-09-21T03:14:55.975Z,7.12
2022-09-21T03:17:24.997Z,6.79
2022-09-21T03:19:55.005Z,6.60
2022-09-21T03:22:22.643Z,6.40
2022-09-21T03:24:50.104Z,6.33
2022-09-21T03:27:19.258Z,6.28
2022-09-21T03:29:47.015Z,6.32
2022-09-21T03:32:15.013Z,6.59
2022-09-21T03:34:44.002Z,6.56
2022-09-21T03:37:11.843Z,6.36
2022-09-21T03:39:39.325Z,6.38
2022-09-21T03:42:06.959Z,6.53
2022-09-21T03:44:34.527Z,6.40
2022-09-21T03:47:01.978Z,6.38
2022-09-21T03:49:29.407Z,6.55
2022-09-21T03:51:59.084Z,6.41
2022-09-21T03:54:26.539Z,6.23
2022-09-21T03:56:53.958Z,6.16
2022-09-21T03:59:21.468Z,6.33
2022-09-21T04:01:48.958Z,6.38
2022-09-21T04:04:16.852Z,6.52
2022-09-21T04:06:46.134Z,6.53
2022-09-21T04:09:14.988Z,6.29
2022-09-21T04:11:42.680Z,6.36
2022-09-21T04:14:12.209Z,6.31
2022-09-21T04:16:39.659Z,6.19
2022-09-21T04:19:07.193Z,6.00
2022-09-21T04:21:34.810Z,5.85
2022-09-21T04:24:04.155Z,5.76
2022-09-21T04:26:34.262Z,5.74
2022-09-21T04:29:02.297Z,5.87
2022-09-21T04:31:31.005Z,6.01
2022-09-21T04:33:58.826Z,6.14
2022-09-21T04:36:27.253Z,6.10
2022-09-21T04:38:55.155Z,6.02
2022-09-21T04:41:22.586Z,6.02
2022-09-21T04:43:51.349Z,5.82
2022-09-21T04:46:20.737Z,5.61
2022-09-21T04:48:49.701Z,5.51
2022-09-21T04:51:17.879Z,5.44
2022-09-21T04:53:45.773Z,5.57
2022-09-21T04:56:15.302Z,5.64
2022-09-21T04:58:42.752Z,5.60
2022-09-21T05:01:11.741Z,5.61
2022-09-21T05:03:39.561Z,5.75
2022-09-21T05:06:07.713Z,5.83
2022-09-21T05:08:52.691Z,5.83
2022-09-21T05:11:20.365Z,5.60
2022-09-21T05:13:48.477Z,5.45
2022-09-21T05:16:18.597Z,5.42
2022-09-21T05:18:47.837Z,5.47
2022-09-21T05:21:16.091Z,5.39
2022-09-21T05:23:43.530Z,5.43
2022-09-21T05:26:11.040Z,5.49
2022-09-21T05:28:40.350Z,5.60
2022-09-21T05:31:28.287Z,5.60
2022-09-21T05:34:00.751Z,6.04
2022-09-21T05:36:40.742Z,6.15
2022-09-21T05:39:08.864Z,6.43
2022-09-21T05:41:37.268Z,6.26
2022-09-21T05:44:06.520Z,6.13
2022-09-21T05:46:39.059Z,6.35
2022-09-21T05:49:16.653Z,6.59
2022-09-21T05:51:50.407Z,6.71
2022-09-21T05:54:22.740Z,6.53
2022-09-21T05:56:54.041Z,6.59
2022-09-21T05:59:34.941Z,7.04
2022-09-21T06:02:08.539Z,7.24
2022-09-21T06:04:38.094Z,7.39
2022-09-21T06:07:08.556Z,7.33
2022-09-21T06:09:37.977Z,7.36
2022-09-21T06:12:11.135Z,7.39
2022-09-21T06:14:38.630Z,7.50
2022-09-21T06:17:06.085Z,7.61
2022-09-21T06:19:33.758Z,7.67
2022-09-21T06:22:02.695Z,7.79
2022-09-21T06:24:30.794Z,7.87
2022-09-21T06:26:58.927Z,8.00
2022-09-21T06:29:27.111Z,8.01
2022-09-21T06:31:55.131Z,8.05
2022-09-21T06:34:29.268Z,8.08
2022-09-21T06:36:57.255Z,8.17
2022-09-21T06:39:26.070Z,8.13
2022-09-21T06:41:53.621Z,8.18
2022-09-21T06:44:21.046Z,8.21
2022-09-21T06:46:48.545Z,8.18
2022-09-21T06:49:16.080Z,8.20
2022-09-21T06:51:44.034Z,8.24
2022-09-21T06:54:11.627Z,8.22
2022-09-21T06:56:43.094Z,8.27
2022-09-21T06:59:10.559Z,8.34
2022-09-21T07:01:38.117Z,8.42
2022-09-21T07:04:06.974Z,8.45
2022-09-21T07:06:34.497Z,8.53
2022-09-21T07:11:51.479Z,8.69
2022-09-21T07:14:19.311Z,8.78
2022-09-21T07:16:46.824Z,8.93
2022-09-21T07:19:14.303Z,8.95
2022-09-21T07:21:41.807Z,9.03
2022-09-21T07:24:12.476Z,9.14
2022-09-21T07:26:40.306Z,9.21
2022-09-21T07:29:09.331Z,9.26
2022-09-21T07:31:36.818Z,9.37
2022-09-21T07:34:04.439Z,9.49
2022-09-21T07:36:31.865Z,9.47
2022-09-21T07:38:59.321Z,9.61
2022-09-21T07:41:26.852Z,9.65
2022-09-21T07:43:54.503Z,9.71
2022-09-21T07:46:23.300Z,9.77
2022-09-21T07:48:50.753Z,9.86
2022-09-21T07:51:18.186Z,9.92
2022-09-21T07:53:45.831Z,9.99
2022-09-21T07:56:15.307Z,10.08
2022-09-21T07:59:00.936Z,10.19
2022-09-21T08:01:30.821Z,10.17
2022-09-21T08:03:59.122Z,10.29
2022-09-21T08:06:28.369Z,10.34
2022-09-21T08:08:58.062Z,10.47
2022-09-21T08:11:27.965Z,10.56
2022-09-21T08:13:58.325Z,10.64
2022-09-21T08:16:26.376Z,10.77
2022-09-21T08:18:55.310Z,10.85
2022-09-21T08:21:26.761Z,10.84
2022-09-21T08:23:55.023Z,10.95
2022-09-21T08:26:23.952Z,10.90
2022-09-21T08:28:55.114Z,11.01
2022-09-21T08:31:26.988Z,11.04
2022-09-21T08:33:57.715Z,11.26
2022-09-21T08:36:25.446Z,11.27
2022-09-21T08:38:54.989Z,11.28
2022-09-21T08:41:25.205Z,11.30
2022-09-21T08:43:55.493Z,11.45
2022-09-21T08:46:25.271Z,11.54
2022-09-21T08:48:58.031Z,11.70
2022-09-21T08:51:28.610Z,11.71
2022-09-21T08:53:58.938Z,11.74
2022-09-21T08:56:47.066Z,11.74
2022-09-21T08:59:15.982Z,11.77
2022-09-21T09:01:54.794Z,11.98
2022-09-21T09:04:29.987Z,11.87
2022-09-21T09:07:08.429Z,12.01
2022-09-21T09:09:46.040Z,12.14
2022-09-21T09:12:24.105Z,12.15
2022-09-21T09:15:11.329Z,12.27
2022-09-21T09:17:47.007Z,12.33
2022-09-21T09:20:17.812Z,12.24
2022-09-21T09:22:48.411Z,12.27
2022-09-21T09:25:19.692Z,12.46
2022-09-21T09:27:48.006Z,12.56
2022-09-21T09:30:18.813Z,12.60
2022-09-21T09:32:52.212Z,12.66
2022-09-21T09:35:27.032Z,12.74
2022-09-21T09:37:58.639Z,12.76
2022-09-21T09:40:39.537Z,12.90
2022-09-21T09:43:09.969Z,12.83
2022-09-21T09:45:50.584Z,12.89
2022-09-21T09:48:34.522Z,12.86
2022-09-21T09:51:03.327Z,12.77
2022-09-21T09:53:31.568Z,12.82
2022-09-21T09:56:00.200Z,12.97
2022-09-21T09:58:36.673Z,12.99
2022-09-21T10:01:04.225Z,12.98
2022-09-21T10:03:31.690Z,13.08
2022-09-21T10:05:59.397Z,13.15
2022-09-21T10:08:41.899Z,13.34
2022-09-21T10:11:09.735Z,13.23
2022-09-21T10:13:37.913Z,13.44
2022-09-21T10:16:07.439Z,13.39
2022-09-21T10:18:39.297Z,13.37
2022-09-21T10:21:08.829Z,13.37
2022-09-21T10:23:38.247Z,13.58
2022-09-21T10:26:08.446Z,13.80
2022-09-21T10:28:36.661Z,13.79
2022-09-21T10:31:13.922Z,13.86
2022-09-21T10:33:51.052Z,13.78
2022-09-21T10:36:30.667Z,13.89
2022-09-21T10:39:17.321Z,13.92
2022-09-21T10:41:49.372Z,13.98
2022-09-21T10:44:17.405Z,14.08
2022-09-21T10:46:45.727Z,14.06
2022-09-21T10:49:21.385Z,14.16
2022-09-21T10:51:50.559Z,14.27
2022-09-21T10:54:23.163Z,14.23
2022-09-21T10:56:56.189Z,14.30
2022-09-21T10:59:26.315Z,14.38
2022-09-21T11:01:55.903Z,14.57
2022-09-21T11:04:34.191Z,14.67
2022-09-21T11:07:06.367Z,14.73
2022-09-21T11:09:39.134Z,14.72
2022-09-21T11:12:14.306Z,14.83
2022-09-21T11:14:46.380Z,14.90
2022-09-21T11:17:17.949Z,14.95
2022-09-21T11:19:50.321Z,14.90
2022-09-21T11:22:25.781Z,15.05
2022-09-21T11:25:00.578Z,15.19
2022-09-21T11:27:32.050Z,15.29
2022-09-21T11:30:03.928Z,15.29
2022-09-21T11:32:46.736Z,15.25
2022-09-21T11:35:33.053Z,15.26
2022-09-21T11:38:13.013Z,15.35
2022-09-21T11:41:14.410Z,15.54
2022-09-21T11:43:53.648Z,15.63
2022-09-21T11:46:26.233Z,15.65
2022-09-21T11:49:07.118Z,15.72
2022-09-21T11:51:56.072Z,15.67
2022-09-21T11:54:51.448Z,15.67
2022-09-21T11:57:24.209Z,15.73
2022-09-21T12:00:15.350Z,15.83
2022-09-21T12:03:18.084Z,15.90
2022-09-21T12:05:51.566Z,15.92
2022-09-21T12:09:04.867Z,16.00
2022-09-21T12:11:41.074Z,16.00
2022-09-21T12:14:22.466Z,16.16
2022-09-21T12:16:56.902Z,16.11
2022-09-21T12:19:34.164Z,16.24
2022-09-21T12:22:04.869Z,16.11
2022-09-21T12:24:34.724Z,16.11
2022-09-21T12:27:05.606Z,16.12
2022-09-21T12:29:37.101Z,16.30
2022-09-21T12:32:07.999Z,16.36
2022-09-21T12:34:40.979Z,16.28
2022-09-21T12:37:13.274Z,16.37
2022-09-21T12:39:44.039Z,16.48
2022-09-21T12:42:23.349Z,16.43
2022-09-21T12:44:54.788Z,16.57
2022-09-21T12:47:27.186Z,16.56
2022-09-21T12:50:00.032Z,16.52
2022-09-21T12:52:27.939Z,16.47
2022-09-21T12:55:00.456Z,16.43
2022-09-21T12:57:53.693Z,16.39
2022-09-21T13:00:22.288Z,16.11
2022-09-21T13:02:54.229Z,16.09
2022-09-21T13:05:36.156Z,16.37
2022-09-21T13:08:08.381Z,16.54
2022-09-21T13:10:40.971Z,16.51
2022-09-21T13:13:18.080Z,16.58
2022-09-21T13:15:48.638Z,16.64
2022-09-21T13:18:23.373Z,16.69
2022-09-21T13:20:52.088Z,16.79
2022-09-21T13:23:24.016Z,16.82
2022-09-21T13:26:00.602Z,16.86
2022-09-21T13:28:44.698Z,17.04
2022-09-21T13:31:57.631Z,16.90
2022-09-21T13:34:30.360Z,16.71
2022-09-21T13:37:27.279Z,16.79
2022-09-21T13:40:43.382Z,16.73
2022-09-21T13:43:23.083Z,16.79
2022-09-21T13:45:56.631Z,16.77
2022-09-21T13:48:29.380Z,16.93
2022-09-21T13:51:08.513Z,16.97
2022-09-21T13:53:40.815Z,16.91
2022-09-21T13:56:11.908Z,17.03
2022-09-21T13:58:44.565Z,17.26
2022-09-21T14:01:42.583Z,17.14
2022-09-21T14:04:18.839Z,17.12
2022-09-21T14:06:49.602Z,17.10
2022-09-21T14:09:24.712Z,17.11
2022-09-21T14:11:58.306Z,17.08
2022-09-21T14:14:29.305Z,16.95
2022-09-21T14:16:58.762Z,16.90
2022-09-21T14:20:00.760Z,16.87
2022-09-21T14:22:49.065Z,16.83
2022-09-21T14:38:51.165Z,17.00
2022-09-21T14:41:23.056Z,17.08
2022-09-21T14:43:53.587Z,17.12
2022-09-21T14:46:46.116Z,16.95
2022-09-21T14:49:34.850Z,16.90
2022-09-21T14:52:18.281Z,17.10
2022-09-21T14:55:01.850Z,16.90
2022-09-21T14:57:44.291Z,16.90
2022-09-21T15:00:26.540Z,16.57
2022-09-21T15:03:19.061Z,16.62
2022-09-21T15:05:49.471Z,16.54
2022-09-21T15:08:51.075Z,16.34
2022-09-21T15:11:25.519Z,16.28
2022-09-21T15:14:05.641Z,16.22
2022-09-21T15:16:40.995Z,16.30
2022-09-21T15:19:22.187Z,16.35
2022-09-21T15:21:51.246Z,16.46
2022-09-21T15:24:21.751Z,16.37
2022-09-21T15:26:52.204Z,16.38
2022-09-21T15:29:26.545Z,16.33
2022-09-21T15:31:54.599Z,16.34
2022-09-21T15:34:23.270Z,16.38
2022-09-21T15:36:52.053Z,16.47
2022-09-21T15:39:25.805Z,16.45
2022-09-21T15:42:17.854Z,16.58
2022-09-21T15:44:48.506Z,16.37
2022-09-21T15:47:18.059Z,16.25
2022-09-21T15:49:46.127Z,16.24
2022-09-21T15:52:22.801Z,16.26
2022-09-21T15:54:53.995Z,16.28
2022-09-21T15:57:36.654Z,16.25
2022-09-21T16:00:28.540Z,16.25
2022-09-21T16:03:05.416Z,16.20
2022-09-21T16:05:35.701Z,16.16
2022-09-21T16:08:10.177Z,16.12
2022-09-21T16:10:40.621Z,16.15
2022-09-21T16:13:34.337Z,16.13
2022-09-21T16:16:03.348Z,16.22
2022-09-21T16:18:35.258Z,16.16
2022-09-21T16:21:10.902Z,16.07
2022-09-21T16:23:39.716Z,15.99
2022-09-21T16:26:07.709Z,15.98
2022-09-21T16:28:39.398Z,16.09
2022-09-21T16:31:24.498Z,16.12
2022-09-21T16:34:01.506Z,16.11
2022-09-21T16:36:44.815Z,16.10
2022-09-21T16:39:15.694Z,16.12
2022-09-21T16:42:02.637Z,16.22
2022-09-21T16:44:40.097Z,16.19
2022-09-21T16:47:14.277Z,16.32
2022-09-21T16:49:42.285Z,16.61
2022-09-21T16:52:10.067Z,16.56
2022-09-21T16:54:38.360Z,16.30
2022-09-21T16:57:07.346Z,16.39
2022-09-21T16:59:36.603Z,16.58
2022-09-21T17:02:05.962Z,16.66
2022-09-21T17:04:35.396Z,16.64
2022-09-21T17:07:04.896Z,16.54
2022-09-21T17:09:35.357Z,16.43
2022-09-21T17:12:03.630Z,16.40
2022-09-21T17:14:35.434Z,16.22
2022-09-21T17:17:08.351Z,16.26
2022-09-21T17:19:36.074Z,16.21
2022-09-21T17:22:04.566Z,16.02
2022-09-21T17:24:49.343Z,15.93
2022-09-21T17:27:19.700Z,15.89
2022-09-21T17:29:49.232Z,15.79
2022-09-21T17:32:20.411Z,15.84
2022-09-21T17:34:50.073Z,15.56
2022-09-21T17:37:17.682Z,15.38
2022-09-21T17:39:45.725Z,15.54
2022-09-21T17:42:18.702Z,15.57
2022-09-21T17:44:59.656Z,15.19
2022-09-21T17:47:32.618Z,14.91
2022-09-21T17:50:06.687Z,14.58
2022-09-21T17:52:52.231Z,14.20
2022-09-21T17:55:20.625Z,14.15
2022-09-21T17:58:12.121Z,14.12
2022-09-21T18:00:46.454Z,13.99
2022-09-21T18:03:22.090Z,13.62
2022-09-21T18:05:50.702Z,13.54
2022-09-21T18:08:18.835Z,13.50
2022-09-21T18:10:51.841Z,13.46
2022-09-21T18:13:25.420Z,13.41
2022-09-21T18:16:03.168Z,13.20
2022-09-21T18:18:42.993Z,13.14
2022-09-21T18:21:15.159Z,13.06
2022-09-21T18:23:51.721Z,12.99
2022-09-21T18:26:20.727Z,12.91
2022-09-21T18:28:57.968Z,12.87
2022-09-21T18:31:36.492Z,12.89
2022-09-21T18:34:19.193Z,12.80
2022-09-21T18:36:59.023Z,12.73
2022-09-21T18:39:32.474Z,12.55
2022-09-21T18:42:09.947Z,12.38
2022-09-21T18:44:40.618Z,12.18
2022-09-21T18:47:12.635Z,12.19
2022-09-21T18:49:49.862Z,12.42
2022-09-21T18:52:26.116Z,12.33
2022-09-21T18:54:54.024Z,12.44
2022-09-21T18:57:22.968Z,12.41
2022-09-21T18:59:51.227Z,12.27
2022-09-21T19:02:20.739Z,11.95
2022-09-21T19:04:50.519Z,11.88
2022-09-21T19:07:27.581Z,11.73
2022-09-21T19:10:01.658Z,11.79
2022-09-21T19:12:38.545Z,11.70
2022-09-21T19:15:13.844Z,11.62
2022-09-21T19:17:55.379Z,11.60
2022-09-21T19:20:39.331Z,11.46
2022-09-21T19:23:14.374Z,11.35
2022-09-21T19:25:49.460Z,11.37
2022-09-21T19:28:53.505Z,11.29
2022-09-21T19:31:24.621Z,11.16
2022-09-21T19:33:52.485Z,11.04
2022-09-21T19:36:24.363Z,11.05
2022-09-21T19:38:53.205Z,11.25
2022-09-21T19:41:36.016Z,11.19
2022-09-21T19:44:22.781Z,11.01
2022-09-21T19:47:00.664Z,10.68
2022-09-21T19:49:45.031Z,10.42
2022-09-21T19:52:30.653Z,10.34
2022-09-21T19:55:16.747Z,10.23
2022-09-21T19:58:07.834Z,10.07
2022-09-21T20:00:35.813Z,10.14
2022-09-21T20:03:05.823Z,10.22
2022-09-21T20:05:40.142Z,10.24
2022-09-21T20:08:14.190Z,10.20
2022-09-21T20:10:59.838Z,10.21
2022-09-21T20:13:42.943Z,9.86
2022-09-21T20:16:27.079Z,9.72
2022-09-21T20:19:01.082Z,9.57
2022-09-21T20:21:38.305Z,9.76
2022-09-21T20:24:16.331Z,9.87
2022-09-21T20:26:44.439Z,9.91
2022-09-21T20:29:14.289Z,9.81
2022-09-21T20:31:43.044Z,9.72
2022-09-21T20:34:11.146Z,9.72
2022-09-21T20:36:40.683Z,9.51
2022-09-21T20:39:10.036Z,9.55
2022-09-21T20:41:37.978Z,9.44
2022-09-21T20:44:05.640Z,9.38
2022-09-21T20:46:33.159Z,9.48
2022-09-21T20:49:04.728Z,9.31
2022-09-21T20:51:39.259Z,9.29
2022-09-21T20:54:07.117Z,9.28
2022-09-21T20:56:36.167Z,9.28
2022-09-21T20:59:03.769Z,9.21
2022-09-21T21:01:37.366Z,9.15
2022-09-21T21:04:05.089Z,9.21
2022-09-21T21:06:34.047Z,9.16
2022-09-21T21:09:01.760Z,9.18
2022-09-21T21:11:30.674Z,9.11
2022-09-21T21:13:59.693Z,9.04
2022-09-21T21:16:27.355Z,9.18
2022-09-21T21:18:55.172Z,9.00
2022-09-21T21:21:25.274Z,9.01
2022-09-21T21:24:11.242Z,9.08
2022-09-21T21:27:00.851Z,8.76
2022-09-21T21:29:28.162Z,8.69
2022-09-21T21:31:55.877Z,8.58
2022-09-21T21:34:24.081Z,8.53
2022-09-21T21:36:53.769Z,8.51
2022-09-21T21:39:21.276Z,8.64
2022-09-21T21:41:48.854Z,8.58
2022-09-21T21:44:16.385Z,8.41
2022-09-21T21:46:45.427Z,8.50
2022-09-21T21:49:13.399Z,8.54
2022-09-21T21:51:40.912Z,8.65
2022-09-21T21:54:08.516Z,8.60
2022-09-21T21:56:36.255Z,8.59
2022-09-21T21:59:04.134Z,8.44
2022-09-21T22:01:31.668Z,8.30
2022-09-21T22:04:02.237Z,8.22
2022-09-21T22:06:31.360Z,8.22
2022-09-21T22:08:59.111Z,8.30
2022-09-21T22:11:27.841Z,8.28
2022-09-21T22:13:56.457Z,8.35
2022-09-21T22:16:25.347Z,8.51
2022-09-21T22:18:53.495Z,8.46
2022-09-21T22:21:24.183Z,8.32
2022-09-21T22:23:53.454Z,8.13
2022-09-21T22:26:21.705Z,7.97
2022-09-21T22:28:51.561Z,8.06
2022-09-21T22:31:21.448Z,8.00
2022-09-21T22:33:49.878Z,7.89
2022-09-21T22:36:19.334Z,7.82
2022-09-21T22:38:49.384Z,7.80
2022-09-21T22:41:18.701Z,7.69
2022-09-21T22:43:46.934Z,7.76
2022-09-21T22:46:16.442Z,7.62
2022-09-21T22:48:44.527Z,7.59
2022-09-21T22:51:12.377Z,7.59
2022-09-21T22:53:40.038Z,7.53
2022-09-21T22:56:10.462Z,7.44
2022-09-21T22:58:39.535Z,7.37
2022-09-21T23:01:08.449Z,7.36
2022-09-21T23:03:38.600Z,7.32
2022-09-21T23:06:07.132Z,7.22
2022-09-21T23:08:34.967Z,7.22
2022-09-21T23:11:14.308Z,7.38
2022-09-21T23:13:42.387Z,7.52
2022-09-21T23:16:11.810Z,7.50
2022-09-21T23:18:40.553Z,7.35
2022-09-21T23:21:11.130Z,7.24
2022-09-21T23:23:38.645Z,7.14
2022-09-21T23:26:08.031Z,7.29
2022-09-21T23:28:37.867Z,7.41
2022-09-21T23:31:07.287Z,7.43
2022-09-21T23:33:37.107Z,7.38
2022-09-21T23:36:05.773Z,7.28
2022-09-21T23:38:33.837Z,7.09
2022-09-21T23:41:03.752Z,7.12
2022-09-21T23:43:31.316Z,7.00
2022-09-21T23:46:00.201Z,6.80
2022-09-21T23:48:27.954Z,6.78
2022-09-21T23:50:55.871Z,6.80
2022-09-21T23:53:24.389Z,6.96
2022-09-21T23:55:52.283Z,6.99
2022-09-21T23:58:19.882Z,6.95
